createdAt,value
2023-09-27T00:01:01.597Z,12.97
2023-09-27T00:03:28.325Z,12.94
2023-09-27T00:05:55.207Z,12.79
2023-09-27T00:08:22.374Z,12.91
2023-09-27T00:10:49.389Z,12.88
2023-09-27T00:13:16.141Z,12.85
2023-09-27T00:15:44.072Z,12.80
2023-09-27T00:18:12.033Z,12.75
2023-09-27T00:20:38.889Z,12.74
2023-09-27T00:23:07.058Z,12.63
2023-09-27T00:25:33.814Z,12.57
2023-09-27T00:28:00.627Z,12.63
2023-09-27T00:30:27.397Z,12.65
2023-09-27T00:32:54.778Z,12.60
2023-09-27T00:35:24.322Z,12.57
2023-09-27T00:37:52.902Z,12.58
2023-09-27T00:40:22.732Z,12.57
2023-09-27T00:42:49.761Z,12.55
2023-09-27T00:45:18.773Z,12.50
2023-09-27T00:47:47.720Z,12.41
2023-09-27T00:50:14.807Z,12.44
2023-09-27T00:52:43.263Z,12.50
2023-09-27T00:55:15.456Z,12.45
2023-09-27T00:57:42.473Z,12.50
2023-09-27T01:00:12.197Z,12.44
2023-09-27T01:02:40.896Z,12.43
2023-09-27T01:05:11.422Z,12.42
2023-09-27T01:07:40.270Z,12.39
2023-09-27T01:10:08.474Z,12.27
2023-09-27T01:12:35.580Z,12.26
2023-09-27T01:15:02.640Z,12.22
2023-09-27T01:17:29.504Z,12.19
2023-09-27T01:19:56.537Z,12.20
2023-09-27T01:22:23.288Z,12.29
2023-09-27T01:24:51.857Z,12.13
2023-09-27T01:27:21.145Z,12.12
2023-09-27T01:29:47.931Z,12.21
2023-09-27T01:32:14.823Z,12.21
2023-09-27T01:34:41.564Z,12.28
2023-09-27T01:37:10.006Z,12.19
2023-09-27T01:39:36.974Z,12.21
2023-09-27T01:42:03.779Z,12.18
2023-09-27T01:44:30.544Z,12.14
2023-09-27T01:46:57.318Z,12.11
2023-09-27T01:49:24.068Z,11.95
2023-09-27T01:51:50.726Z,12.01
2023-09-27T01:54:17.400Z,12.01
2023-09-27T01:56:44.208Z,12.01
2023-09-27T01:59:10.958Z,12.00
2023-09-27T02:01:37.848Z,12.00
2023-09-27T02:04:05.617Z,12.03
2023-09-27T02:06:32.659Z,12.07
2023-09-27T02:08:59.313Z,12.14
2023-09-27T02:11:27.200Z,12.16
2023-09-27T02:13:54.250Z,12.14
2023-09-27T02:16:21.614Z,11.94
2023-09-27T02:18:48.433Z,12.05
2023-09-27T02:21:15.200Z,12.16
2023-09-27T02:23:42.044Z,12.12
2023-09-27T02:26:09.059Z,12.20
2023-09-27T02:28:35.706Z,11.95
2023-09-27T02:31:02.557Z,11.97
2023-09-27T02:33:29.343Z,11.68
2023-09-27T02:35:56.468Z,11.72
2023-09-27T02:38:23.388Z,11.64
2023-09-27T02:40:50.200Z,11.61
2023-09-27T02:43:16.967Z,11.67
2023-09-27T02:45:44.355Z,11.70
2023-09-27T02:48:11.051Z,11.77
2023-09-27T02:50:38.023Z,11.74
2023-09-27T02:53:05.679Z,11.76
2023-09-27T02:55:32.427Z,11.74
2023-09-27T02:57:59.139Z,11.66
2023-09-27T03:00:27.902Z,11.78
2023-09-27T03:02:54.773Z,11.73
2023-09-27T03:05:21.801Z,11.86
2023-09-27T03:07:49.735Z,11.70
2023-09-27T03:10:17.566Z,11.72
2023-09-27T03:12:47.775Z,11.64
2023-09-27T03:15:14.469Z,11.54
2023-09-27T03:17:45.714Z,11.55
2023-09-27T03:20:18.510Z,11.62
2023-09-27T03:22:46.167Z,11.69
2023-09-27T03:25:13.438Z,11.66
2023-09-27T03:27:40.140Z,11.66
2023-09-27T03:30:10.367Z,11.59
2023-09-27T03:32:37.182Z,11.66
2023-09-27T03:35:04.697Z,11.55
2023-09-27T03:37:31.831Z,11.60
2023-09-27T03:39:58.492Z,11.56
2023-09-27T03:42:25.168Z,11.51
2023-09-27T03:44:52.242Z,11.45
2023-09-27T03:47:19.054Z,11.48
2023-09-27T03:49:45.894Z,11.39
2023-09-27T03:52:12.607Z,11.35
2023-09-27T03:54:39.282Z,11.33
2023-09-27T03:57:06.043Z,11.18
2023-09-27T03:59:32.838Z,11.11
2023-09-27T04:01:59.783Z,11.21
2023-09-27T04:04:26.592Z,11.18
2023-09-27T04:06:53.447Z,11.15
2023-09-27T04:09:20.138Z,11.11
2023-09-27T04:11:46.961Z,11.08
2023-09-27T04:14:13.778Z,11.10
2023-09-27T04:16:40.487Z,11.04
2023-09-27T04:19:07.215Z,11.19
2023-09-27T04:21:33.884Z,11.13
2023-09-27T04:24:01.307Z,11.15
2023-09-27T04:26:28.351Z,11.10
2023-09-27T04:28:55.616Z,11.09
2023-09-27T04:31:22.573Z,11.09
2023-09-27T04:33:49.433Z,11.01
2023-09-27T04:36:19.571Z,11.05
2023-09-27T04:38:47.013Z,10.89
2023-09-27T04:41:15.600Z,10.84
2023-09-27T04:43:45.215Z,10.80
2023-09-27T04:46:15.790Z,10.75
2023-09-27T04:48:42.595Z,10.76
2023-09-27T04:51:10.712Z,10.75
2023-09-27T04:53:38.954Z,10.84
2023-09-27T04:56:13.195Z,10.83
2023-09-27T04:58:42.575Z,10.79
2023-09-27T05:01:11.141Z,10.64
2023-09-27T05:03:39.317Z,10.54
2023-09-27T05:06:06.214Z,10.50
2023-09-27T05:08:33.095Z,10.33
2023-09-27T05:10:59.803Z,10.36
2023-09-27T05:13:26.618Z,10.47
2023-09-27T05:15:53.666Z,10.53
2023-09-27T05:18:21.561Z,10.67
2023-09-27T05:20:48.220Z,10.66
2023-09-27T05:23:14.869Z,10.77
2023-09-27T05:25:42.194Z,10.76
2023-09-27T05:28:09.067Z,10.85
2023-09-27T05:30:36.025Z,10.61
2023-09-27T05:33:02.822Z,10.54
2023-09-27T05:35:29.525Z,10.63
2023-09-27T05:37:56.929Z,10.60
2023-09-27T05:40:23.762Z,10.69
2023-09-27T05:42:50.416Z,10.69
2023-09-27T05:45:17.061Z,10.65
2023-09-27T05:47:44.102Z,10.63
2023-09-27T05:50:13.899Z,10.59
2023-09-27T05:52:46.353Z,10.66
2023-09-27T05:55:14.129Z,10.75
2023-09-27T05:57:40.764Z,10.77
2023-09-27T06:00:16.860Z,10.84
2023-09-27T06:02:44.955Z,10.93
2023-09-27T06:05:12.812Z,10.93
2023-09-27T06:07:39.733Z,11.07
2023-09-27T06:10:07.919Z,11.20
2023-09-27T06:12:34.745Z,11.23
2023-09-27T06:15:02.376Z,11.26
2023-09-27T06:17:28.996Z,11.49
2023-09-27T06:19:56.063Z,11.50
2023-09-27T06:22:24.433Z,11.70
2023-09-27T06:24:51.332Z,11.81
2023-09-27T06:27:18.204Z,11.89
2023-09-27T06:29:45.186Z,11.73
2023-09-27T06:32:12.238Z,11.74
2023-09-27T06:34:38.974Z,11.79
2023-09-27T06:37:08.732Z,11.99
2023-09-27T06:39:35.579Z,12.20
2023-09-27T06:42:03.436Z,12.14
2023-09-27T06:44:30.408Z,12.13
2023-09-27T06:46:57.180Z,12.33
2023-09-27T06:49:23.827Z,12.35
2023-09-27T06:51:50.537Z,12.41
2023-09-27T06:54:17.383Z,12.42
2023-09-27T06:56:44.126Z,12.70
2023-09-27T06:59:11.139Z,12.80
2023-09-27T07:01:37.917Z,12.86
2023-09-27T07:04:04.989Z,12.98
2023-09-27T07:06:31.792Z,12.94
2023-09-27T07:08:59.492Z,13.01
2023-09-27T07:11:26.584Z,13.05
2023-09-27T07:13:53.658Z,13.08
2023-09-27T07:16:30.012Z,13.00
2023-09-27T07:19:01.223Z,12.74
2023-09-27T07:21:29.472Z,13.06
2023-09-27T07:23:56.433Z,12.59
2023-09-27T07:26:23.460Z,13.09
2023-09-27T07:28:51.905Z,12.92
2023-09-27T07:31:19.278Z,13.27
2023-09-27T07:33:46.646Z,13.38
2023-09-27T07:36:13.486Z,13.31
2023-09-27T07:38:41.239Z,13.35
2023-09-27T07:41:10.356Z,13.54
2023-09-27T07:43:37.692Z,13.52
2023-09-27T07:46:09.276Z,14.02
2023-09-27T07:48:39.513Z,14.10
2023-09-27T07:51:22.260Z,14.24
2023-09-27T07:53:49.054Z,14.26
2023-09-27T07:56:24.478Z,14.16
2023-09-27T07:58:53.714Z,13.96
2023-09-27T08:01:22.223Z,14.07
2023-09-27T08:03:50.414Z,14.39
2023-09-27T08:06:18.357Z,14.11
2023-09-27T08:08:45.299Z,14.08
2023-09-27T08:11:14.840Z,13.67
2023-09-27T08:13:42.279Z,13.66
2023-09-27T08:16:09.371Z,13.54
2023-09-27T08:18:37.064Z,13.56
2023-09-27T08:21:04.916Z,13.72
2023-09-27T08:23:31.633Z,13.74
2023-09-27T08:25:58.337Z,13.64
2023-09-27T08:28:25.289Z,13.89
2023-09-27T08:30:52.193Z,13.83
2023-09-27T08:33:18.905Z,14.01
2023-09-27T08:35:45.662Z,13.99
2023-09-27T08:38:12.506Z,14.03
2023-09-27T08:40:40.516Z,13.93
2023-09-27T08:43:07.286Z,14.26
2023-09-27T08:45:38.458Z,14.82
2023-09-27T08:48:06.922Z,15.01
2023-09-27T08:50:35.853Z,14.46
2023-09-27T08:53:02.527Z,14.97
2023-09-27T08:55:29.459Z,14.68
2023-09-27T08:57:57.254Z,15.04
2023-09-27T09:00:28.542Z,15.01
2023-09-27T09:03:00.713Z,15.02
2023-09-27T09:05:30.497Z,15.23
2023-09-27T09:08:00.509Z,15.14
2023-09-27T09:10:27.310Z,14.82
2023-09-27T09:12:55.561Z,15.21
2023-09-27T09:15:42.888Z,14.85
2023-09-27T09:18:16.678Z,15.33
2023-09-27T09:20:55.742Z,15.49
2023-09-27T09:23:37.594Z,15.59
2023-09-27T09:26:07.236Z,15.56
2023-09-27T09:29:02.442Z,15.83
2023-09-27T09:31:30.486Z,16.10
2023-09-27T09:34:08.620Z,16.05
2023-09-27T09:36:36.398Z,16.09
2023-09-27T09:39:07.506Z,16.62
2023-09-27T09:41:46.836Z,16.97
2023-09-27T09:44:21.431Z,17.41
2023-09-27T09:46:49.556Z,17.36
2023-09-27T09:49:17.544Z,17.28
2023-09-27T09:51:49.717Z,17.77
2023-09-27T09:54:57.152Z,17.76
2023-09-27T09:57:52.263Z,17.35
2023-09-27T10:00:27.300Z,17.59
2023-09-27T10:03:01.173Z,17.25
2023-09-27T10:05:35.472Z,17.46
2023-09-27T10:08:02.464Z,17.75
2023-09-27T10:10:29.888Z,17.61
2023-09-27T10:12:58.890Z,18.15
2023-09-27T10:15:27.045Z,18.45
2023-09-27T10:17:53.851Z,18.37
2023-09-27T10:20:25.096Z,18.78
2023-09-27T10:22:53.429Z,18.74
2023-09-27T10:25:29.146Z,18.82
2023-09-27T10:28:10.811Z,19.29
2023-09-27T10:30:43.484Z,19.87
2023-09-27T10:33:16.532Z,19.88
2023-09-27T10:35:48.522Z,20.08
2023-09-27T10:38:17.286Z,19.94
2023-09-27T10:40:48.049Z,19.99
2023-09-27T10:43:44.179Z,19.95
2023-09-27T10:46:11.022Z,20.10
2023-09-27T10:48:39.465Z,20.10
2023-09-27T10:51:06.103Z,19.89
2023-09-27T10:53:34.092Z,20.39
2023-09-27T10:56:01.280Z,20.15
2023-09-27T10:58:28.364Z,20.53
2023-09-27T11:01:01.855Z,20.58
2023-09-27T11:03:31.555Z,20.51
2023-09-27T11:06:17.925Z,20.46
2023-09-27T11:08:44.614Z,20.67
2023-09-27T11:11:14.808Z,20.61
2023-09-27T11:13:44.260Z,21.00
2023-09-27T11:16:13.424Z,20.91
2023-09-27T11:18:49.018Z,20.99
2023-09-27T11:21:17.159Z,21.25
2023-09-27T11:23:58.266Z,21.34
2023-09-27T11:26:26.623Z,20.97
2023-09-27T11:29:00.785Z,21.12
2023-09-27T11:31:29.894Z,21.40
2023-09-27T11:34:14.926Z,21.70
2023-09-27T11:36:54.217Z,21.50
2023-09-27T11:39:27.894Z,21.52
2023-09-27T11:42:00.341Z,21.65
2023-09-27T11:44:29.177Z,21.79
2023-09-27T11:47:09.938Z,21.95
2023-09-27T11:49:37.289Z,22.16
2023-09-27T11:52:11.470Z,22.23
2023-09-27T11:54:43.378Z,22.86
2023-09-27T11:57:10.637Z,23.25
2023-09-27T11:59:41.319Z,22.81
2023-09-27T12:02:24.421Z,23.67
2023-09-27T12:04:53.422Z,24.32
2023-09-27T12:07:20.219Z,23.76
2023-09-27T12:09:46.969Z,24.19
2023-09-27T12:12:13.723Z,24.51
2023-09-27T12:14:40.651Z,24.56
2023-09-27T12:17:07.308Z,24.28
2023-09-27T12:19:35.856Z,25.31
2023-09-27T12:22:04.498Z,24.44
2023-09-27T12:24:32.287Z,25.14
2023-09-27T12:26:58.999Z,25.44
2023-09-27T12:29:25.832Z,24.95
2023-09-27T12:31:52.660Z,24.67
2023-09-27T12:34:20.815Z,25.20
2023-09-27T12:36:48.763Z,26.01
2023-09-27T12:39:15.995Z,25.65
2023-09-27T12:41:42.751Z,25.19
2023-09-27T12:44:13.651Z,24.64
2023-09-27T12:46:45.440Z,25.52
2023-09-27T12:49:12.217Z,25.40
2023-09-27T12:51:48.833Z,25.37
2023-09-27T12:54:16.687Z,26.25
2023-09-27T12:56:44.194Z,26.15
2023-09-27T12:59:11.043Z,25.56
2023-09-27T13:01:40.725Z,25.03
2023-09-27T13:04:08.517Z,25.62
2023-09-27T13:06:36.021Z,24.97
2023-09-27T13:09:03.058Z,24.97
2023-09-27T13:11:30.230Z,25.43
2023-09-27T13:13:57.019Z,25.44
2023-09-27T13:16:23.658Z,24.87
2023-09-27T13:18:54.604Z,24.53
2023-09-27T13:21:21.676Z,24.33
2023-09-27T13:23:48.400Z,24.35
2023-09-27T13:26:15.089Z,24.69
2023-09-27T13:28:41.750Z,24.26
2023-09-27T13:31:08.624Z,24.89
2023-09-27T13:33:35.911Z,24.76
2023-09-27T13:36:02.757Z,24.59
2023-09-27T13:38:29.502Z,24.90
2023-09-27T13:40:56.235Z,24.75
2023-09-27T13:43:22.937Z,24.47
2023-09-27T13:45:49.668Z,24.25
2023-09-27T13:48:16.794Z,24.29
2023-09-27T13:50:43.569Z,24.02
2023-09-27T13:53:10.282Z,24.14
2023-09-27T13:55:38.017Z,24.05
2023-09-27T13:58:04.926Z,23.85
2023-09-27T14:00:31.622Z,24.03
2023-09-27T14:02:58.565Z,24.19
2023-09-27T14:05:26.000Z,24.28
2023-09-27T14:07:52.907Z,24.34
2023-09-27T14:10:20.729Z,24.03
2023-09-27T14:12:48.939Z,24.09
2023-09-27T14:15:16.686Z,24.35
2023-09-27T14:17:44.317Z,23.74
2023-09-27T14:20:15.856Z,23.84
2023-09-27T14:22:44.128Z,23.72
2023-09-27T14:25:11.834Z,24.00
2023-09-27T14:27:38.953Z,24.00
2023-09-27T14:30:06.694Z,23.77
2023-09-27T14:32:33.394Z,23.86
2023-09-27T14:35:00.315Z,23.68
2023-09-27T14:37:27.625Z,23.55
2023-09-27T14:39:54.435Z,23.60
2023-09-27T14:42:22.085Z,23.64
2023-09-27T14:44:48.803Z,23.70
2023-09-27T14:47:15.473Z,23.56
2023-09-27T14:49:42.645Z,23.40
2023-09-27T14:52:09.621Z,23.35
2023-09-27T14:54:36.322Z,23.28
2023-09-27T14:57:02.968Z,23.37
2023-09-27T14:59:29.581Z,23.35
2023-09-27T15:01:59.223Z,23.13
2023-09-27T15:04:26.382Z,23.26
2023-09-27T15:06:54.303Z,22.96
2023-09-27T15:09:21.280Z,23.03
2023-09-27T15:11:47.977Z,23.04
2023-09-27T15:14:15.260Z,23.02
2023-09-27T15:16:42.189Z,22.93
2023-09-27T15:19:09.483Z,22.87
2023-09-27T15:21:37.716Z,22.88
2023-09-27T15:24:04.599Z,22.86
2023-09-27T15:26:31.315Z,22.80
2023-09-27T15:28:58.031Z,22.77
2023-09-27T15:31:24.710Z,22.85
2023-09-27T15:33:52.156Z,22.76
2023-09-27T15:36:19.292Z,22.82
2023-09-27T15:38:46.475Z,22.81
2023-09-27T15:41:17.236Z,22.80
2023-09-27T15:43:45.022Z,22.80
2023-09-27T15:46:14.402Z,22.73
2023-09-27T15:48:41.569Z,22.67
2023-09-27T15:51:10.098Z,22.67
2023-09-27T15:53:38.606Z,22.65
2023-09-27T15:56:07.823Z,22.69
2023-09-27T15:58:35.114Z,22.59
2023-09-27T16:01:07.101Z,22.59
2023-09-27T16:03:34.212Z,22.56
2023-09-27T16:06:02.363Z,22.53
2023-09-27T16:08:29.142Z,22.46
2023-09-27T16:10:57.093Z,22.42
2023-09-27T16:13:24.224Z,22.28
2023-09-27T16:15:52.041Z,22.19
2023-09-27T16:18:20.079Z,22.17
2023-09-27T16:20:48.281Z,22.02
2023-09-27T16:23:15.720Z,21.99
2023-09-27T16:25:43.427Z,21.88
2023-09-27T16:28:10.870Z,21.80
2023-09-27T16:30:40.677Z,21.71
2023-09-27T16:33:07.439Z,21.63
2023-09-27T16:35:39.075Z,21.52
2023-09-27T16:38:07.163Z,21.44
2023-09-27T16:40:34.370Z,21.35
2023-09-27T16:43:02.631Z,21.27
2023-09-27T16:45:29.376Z,21.16
2023-09-27T16:47:56.290Z,20.99
2023-09-27T16:50:23.022Z,20.90
2023-09-27T16:52:49.987Z,20.74
2023-09-27T16:55:16.931Z,20.61
2023-09-27T16:57:43.583Z,20.48
2023-09-27T17:00:13.760Z,20.38
2023-09-27T17:02:41.218Z,20.28
2023-09-27T17:05:08.904Z,20.23
2023-09-27T17:07:38.837Z,20.11
2023-09-27T17:10:08.506Z,20.04
2023-09-27T17:12:36.194Z,19.91
2023-09-27T17:15:02.737Z,19.79
2023-09-27T17:17:30.476Z,19.68
2023-09-27T17:19:57.468Z,19.64
2023-09-27T17:22:24.175Z,19.57
2023-09-27T17:24:52.978Z,19.49
2023-09-27T17:27:19.800Z,19.41
2023-09-27T17:29:46.631Z,19.24
2023-09-27T17:32:13.565Z,19.19
2023-09-27T17:34:40.307Z,19.06
2023-09-27T17:37:09.685Z,19.02
2023-09-27T17:39:37.607Z,18.93
2023-09-27T17:42:04.468Z,18.82
2023-09-27T17:44:31.109Z,18.74
2023-09-27T17:46:59.084Z,18.65
2023-09-27T17:49:32.386Z,18.55
2023-09-27T17:51:59.417Z,18.50
2023-09-27T17:54:26.443Z,18.41
2023-09-27T17:56:53.027Z,18.28
2023-09-27T17:59:20.447Z,18.21
2023-09-27T18:01:49.283Z,18.08
2023-09-27T18:04:16.926Z,17.99
2023-09-27T18:06:43.638Z,17.90
2023-09-27T18:09:10.372Z,17.83
2023-09-27T18:11:36.940Z,17.75
2023-09-27T18:14:04.235Z,17.77
2023-09-27T18:16:31.030Z,17.65
2023-09-27T18:18:58.042Z,17.58
2023-09-27T18:21:24.904Z,17.54
2023-09-27T18:23:52.104Z,17.42
2023-09-27T18:26:19.328Z,17.42
2023-09-27T18:28:46.008Z,17.37
2023-09-27T18:31:13.125Z,17.33
2023-09-27T18:33:40.506Z,17.24
2023-09-27T18:36:07.735Z,17.17
2023-09-27T18:38:34.712Z,17.16
2023-09-27T18:41:02.561Z,17.11
2023-09-27T18:43:29.423Z,17.04
2023-09-27T18:45:58.390Z,17.00
2023-09-27T18:48:25.199Z,16.97
2023-09-27T18:50:53.055Z,16.90
2023-09-27T18:53:21.290Z,16.87
2023-09-27T18:55:47.960Z,16.88
2023-09-27T18:58:15.518Z,16.85
2023-09-27T19:00:46.146Z,16.86
2023-09-27T19:03:15.434Z,16.88
2023-09-27T19:05:42.421Z,16.80
2023-09-27T19:08:09.334Z,16.80
2023-09-27T19:10:39.348Z,16.70
2023-09-27T19:13:06.435Z,16.67
2023-09-27T19:15:33.092Z,16.63
2023-09-27T19:17:59.985Z,16.56
2023-09-27T19:20:27.601Z,16.48
2023-09-27T19:22:54.712Z,16.43
2023-09-27T19:25:21.837Z,16.38
2023-09-27T19:27:49.449Z,16.33
2023-09-27T19:30:17.173Z,16.28
2023-09-27T19:32:47.496Z,16.30
2023-09-27T19:35:16.037Z,16.25
2023-09-27T19:37:43.716Z,16.20
2023-09-27T19:40:11.104Z,16.15
2023-09-27T19:42:38.326Z,16.20
2023-09-27T19:45:06.715Z,16.20
2023-09-27T19:47:36.038Z,16.11
2023-09-27T19:50:04.230Z,16.15
2023-09-27T19:52:31.306Z,16.13
2023-09-27T19:54:58.004Z,16.05
2023-09-27T19:57:24.791Z,16.03
2023-09-27T19:59:51.528Z,16.03
2023-09-27T20:02:20.790Z,16.07
2023-09-27T20:04:47.613Z,16.01
2023-09-27T20:07:14.294Z,16.02
2023-09-27T20:09:41.206Z,15.95
2023-09-27T20:12:08.165Z,15.94
2023-09-27T20:14:35.153Z,15.87
2023-09-27T20:17:01.809Z,15.87
2023-09-27T20:19:28.752Z,15.73
2023-09-27T20:21:59.633Z,15.64
2023-09-27T20:24:27.703Z,15.68
2023-09-27T20:26:54.608Z,15.65
2023-09-27T20:29:21.826Z,15.48
2023-09-27T20:31:48.573Z,15.43
2023-09-27T20:34:15.579Z,15.46
2023-09-27T20:36:42.617Z,15.57
2023-09-27T20:39:12.162Z,15.36
2023-09-27T20:41:38.859Z,15.40
2023-09-27T20:44:07.009Z,15.37
2023-09-27T20:46:33.753Z,15.44
2023-09-27T20:49:01.307Z,15.44
2023-09-27T20:51:28.294Z,15.37
2023-09-27T20:53:55.510Z,15.39
2023-09-27T20:56:22.645Z,15.36
2023-09-27T20:58:49.700Z,15.28
2023-09-27T21:01:28.053Z,15.22
2023-09-27T21:03:55.221Z,15.14
2023-09-27T21:06:26.466Z,15.13
2023-09-27T21:08:53.193Z,15.06
2023-09-27T21:11:19.808Z,14.99
2023-09-27T21:13:46.499Z,15.02
2023-09-27T21:16:13.363Z,14.95
2023-09-27T21:18:40.005Z,14.88
2023-09-27T21:21:06.711Z,14.79
2023-09-27T21:23:35.417Z,14.73
2023-09-27T21:26:06.481Z,14.73
2023-09-27T21:28:33.088Z,14.73
2023-09-27T21:30:59.713Z,14.72
2023-09-27T21:33:26.334Z,14.73
2023-09-27T21:35:58.405Z,14.62
2023-09-27T21:38:25.074Z,14.58
2023-09-27T21:40:51.774Z,14.51
2023-09-27T21:43:18.627Z,14.48
2023-09-27T21:45:45.781Z,14.50
2023-09-27T21:48:13.403Z,14.47
2023-09-27T21:50:40.847Z,14.40
2023-09-27T21:53:08.633Z,14.46
2023-09-27T21:55:35.526Z,14.34
2023-09-27T21:58:02.187Z,14.37
2023-09-27T22:00:31.414Z,14.30
2023-09-27T22:02:59.304Z,14.28
2023-09-27T22:05:30.857Z,14.27
2023-09-27T22:07:57.776Z,14.24
2023-09-27T22:10:28.706Z,14.23
2023-09-27T22:12:55.355Z,14.23
2023-09-27T22:15:24.984Z,14.21
2023-09-27T22:17:56.024Z,14.20
2023-09-27T22:20:22.951Z,14.01
2023-09-27T22:22:50.847Z,14.06
2023-09-27T22:25:17.944Z,14.02
2023-09-27T22:27:46.864Z,14.04
2023-09-27T22:30:16.999Z,13.95
2023-09-27T22:32:46.258Z,14.00
2023-09-27T22:35:23.755Z,14.04
2023-09-27T22:37:51.711Z,13.93
2023-09-27T22:40:21.478Z,13.89
2023-09-27T22:42:49.924Z,13.89
2023-09-27T22:45:29.739Z,13.80
2023-09-27T22:47:58.681Z,13.69
2023-09-27T22:50:30.063Z,13.73
2023-09-27T22:52:58.045Z,13.75
2023-09-27T22:55:30.662Z,13.76
2023-09-27T22:57:57.942Z,13.74
2023-09-27T23:00:26.605Z,13.70
2023-09-27T23:02:56.266Z,13.63
2023-09-27T23:05:33.065Z,13.56
2023-09-27T23:08:11.207Z,13.62
2023-09-27T23:10:39.563Z,13.60
2023-09-27T23:13:07.334Z,13.47
2023-09-27T23:15:41.130Z,13.44
2023-09-27T23:18:14.998Z,13.53
2023-09-27T23:20:42.134Z,13.50
2023-09-27T23:23:13.785Z,13.48
2023-09-27T23:25:47.196Z,13.42
2023-09-27T23:28:29.102Z,13.45
2023-09-27T23:31:05.865Z,13.40
2023-09-27T23:33:32.599Z,13.42
2023-09-27T23:35:59.677Z,13.31
2023-09-27T23:38:45.394Z,13.40
2023-09-27T23:41:12.377Z,13.36
2023-09-27T23:43:41.794Z,13.27
2023-09-27T23:46:15.337Z,13.19
2023-09-27T23:48:43.085Z,13.22
2023-09-27T23:51:09.828Z,13.16
2023-09-27T23:53:37.390Z,13.10
2023-09-27T23:56:08.006Z,13.11
2023-09-27T23:58:35.687Z,13.00
